1864 NOT_NAMED (1864102S07429)


IBTrACS version v04r00. Visit IBTrACS website for data access.
Please direct all questions to the IBTrACS Q and A forum

Storm track - Intensity - Wind Radii - Intensity Data - Source Data - All data

Summary Information

Storm ID 1864102S07429
Start Apr 10 18Z
End Apr 17 06Z
ATCF IDs
Track status Best track data.
Spur track This storm is a spur track associated with the main storm: 1864102S07069

Storm track plot

Map of storm track

Intensity plots

No Intensity information for this storm


Radial wind information

No radial wind information for this storm


Position and Intensity Table

BASIN ISO_TIME_________ NATURE LAT LON
degrees north degrees east
SI 1864-04-10 18:00:00 NR -7.10 69.00
SI 21:00:00 NR -7.25 69.21
SI 1864-04-11 00:00:00 NR -7.39 69.41
SI 03:00:00 NR -7.54 69.61
SI 06:00:00 NR -7.70 69.80
SI 09:00:00 NR -7.86 69.98
SI 12:00:00 NR -8.02 70.15
SI 15:00:00 NR -8.17 70.32
SI 18:00:00 NR -8.30 70.50
SI 21:00:00 NR -8.38 70.68
SI 1864-04-12 00:00:00 NR -8.44 70.88
SI 03:00:00 NR -8.51 71.08
SI 06:00:00 NR -8.60 71.30
SI 09:00:00 NR -8.75 71.56
SI 12:00:00 NR -8.94 71.82
SI 15:00:00 NR -9.12 72.08
SI 18:00:00 NR -9.30 72.30
SI 21:00:00 NR -9.45 72.45
SI 1864-04-13 00:00:00 NR -9.58 72.57
SI 03:00:00 NR -9.70 72.67
SI 06:00:00 NR -9.80 72.80
SI 09:00:00 NR -9.89 72.98
SI 12:00:00 NR -9.97 73.19
SI 15:00:00 NR -10.03 73.40
SI 18:00:00 NR -10.10 73.60
SI 21:00:00 NR -10.17 73.78
SI 1864-04-14 00:00:00 NR -10.23 73.96
SI 03:00:00 NR -10.31 74.13
SI 06:00:00 NR -10.40 74.30
SI 09:00:00 NR -10.52 74.48
SI 12:00:00 NR -10.65 74.66
SI 15:00:00 NR -10.78 74.84
SI 18:00:00 NR -10.90 75.00
SI 21:00:00 NR -10.99 75.12
SI 1864-04-15 00:00:00 NR -11.06 75.23
SI 03:00:00 NR -11.13 75.35
SI 06:00:00 NR -11.20 75.50
SI 09:00:00 NR -11.28 75.71
SI 12:00:00 NR -11.38 75.96
SI 15:00:00 NR -11.48 76.23
SI 18:00:00 NR -11.60 76.50
SI 21:00:00 NR -11.74 76.75
SI 1864-04-16 00:00:00 NR -11.90 77.00
SI 03:00:00 NR -12.06 77.25
SI 06:00:00 NR -12.20 77.50
SI 09:00:00 NR -12.31 77.76
SI 12:00:00 NR -12.41 78.02
SI 15:00:00 NR -12.51 78.26
SI 18:00:00 NR -12.60 78.50
SI 21:00:00 NR -12.70 78.72
SI 1864-04-17 00:00:00 NR -12.80 78.92
SI 03:00:00 NR -12.90 79.11
SI 06:00:00 NR -13.00 79.30

Source Information

Agency Information
USA
TOKYO
CMA
HKO
NEWDELHI
REUNION
BOM
NADI
WELLINGTON
DS824
TD9636 cons_worldwide_trop_cyclone_18710101-19891231-005:Line=775
TD9635
NEUMANN
MLC

All available IBTrACS Data

SEASON BASIN SUBBASIN ISO_TIME_________ NATURE LAT LON DIST2LAND LANDFALL IFLAG USA SSHS TD9636 LAT TD9636 LON TD9636 STAGE STORM SPEED STORM DIR
Year degrees north degrees east km km 1 degrees north degrees east kts degrees
1864 SI MM 1864-04-10 18:00:00 NR -7.10 69.00 1898 1896 __________O___ -1 -7.10 69.00 7 5 125
1864 SI MM 21:00:00 NR -7.25 69.21 1903 1894 __________P___ -1 -7.25 69.21 7 5 126
1864 SI MM 1864-04-11 00:00:00 NR -7.39 69.41 1900 1899 __________P___ -1 -7.39 69.41 7 5 127
1864 SI MM 03:00:00 NR -7.54 69.61 1906 1896 __________P___ -1 -7.54 69.61 7 5 129
1864 SI MM 06:00:00 NR -7.70 69.80 1904 1902 __________O___ -1 -7.70 69.80 7 5 131
1864 SI MM 09:00:00 NR -7.86 69.98 1902 1901 __________P___ -1 -7.86 69.98 7 5 133
1864 SI MM 12:00:00 NR -8.02 70.15 1909 1900 __________P___ -1 -8.02 70.15 7 5 132
1864 SI MM 15:00:00 NR -8.17 70.32 1900 1900 __________P___ -1 -8.17 70.32 7 4 129
1864 SI MM 18:00:00 NR -8.30 70.50 1908 1908 __________O___ -1 -8.30 70.50 7 4 120
1864 SI MM 21:00:00 NR -8.38 70.68 1916 1916 __________P___ -1 -8.38 70.68 7 4 111
1864 SI MM 1864-04-12 00:00:00 NR -8.44 70.88 1921 1918 __________P___ -1 -8.44 70.88 7 4 108
1864 SI MM 03:00:00 NR -8.51 71.08 1918 1913 __________P___ -1 -8.51 71.08 7 4 111
1864 SI MM 06:00:00 NR -8.60 71.30 1916 1911 __________O___ -1 -8.60 71.30 7 5 118
1864 SI MM 09:00:00 NR -8.75 71.56 1918 1913 __________P___ -1 -8.75 71.56 7 6 123
1864 SI MM 12:00:00 NR -8.94 71.82 1917 1916 __________P___ -1 -8.94 71.82 7 6 126
1864 SI MM 15:00:00 NR -9.12 72.08 1921 1921 __________P___ -1 -9.12 72.08 7 6 128
1864 SI MM 18:00:00 NR -9.30 72.30 1930 1930 __________O___ -1 -9.30 72.30 7 5 131
1864 SI MM 21:00:00 NR -9.45 72.45 1935 1935 __________P___ -1 -9.45 72.45 7 4 137
1864 SI MM 1864-04-13 00:00:00 NR -9.58 72.57 1945 1945 __________P___ -1 -9.58 72.57 7 3 139
1864 SI MM 03:00:00 NR -9.70 72.67 1950 1950 __________P___ -1 -9.70 72.67 7 3 134
1864 SI MM 06:00:00 NR -9.80 72.80 1956 1951 __________O___ -1 -9.80 72.80 7 4 122
1864 SI MM 09:00:00 NR -9.89 72.98 1956 1952 __________P___ -1 -9.89 72.98 7 4 114
1864 SI MM 12:00:00 NR -9.97 73.19 1958 1949 __________P___ -1 -9.97 73.19 7 4 110
1864 SI MM 15:00:00 NR -10.03 73.40 1949 1949 __________P___ -1 -10.03 73.40 7 4 108
1864 SI MM 18:00:00 NR -10.10 73.60 1950 1946 __________O___ -1 -10.10 73.60 7 4 109
1864 SI MM 21:00:00 NR -10.17 73.78 1953 1948 __________P___ -1 -10.17 73.78 7 4 111
1864 SI MM 1864-04-14 00:00:00 NR -10.23 73.96 1944 1944 __________P___ -1 -10.23 73.96 7 4 113
1864 SI MM 03:00:00 NR -10.31 74.13 1951 1947 __________P___ -1 -10.31 74.13 7 4 116
1864 SI MM 06:00:00 NR -10.40 74.30 1954 1950 __________O___ -1 -10.40 74.30 7 4 121
1864 SI MM 09:00:00 NR -10.52 74.48 1957 1957 __________P___ -1 -10.52 74.48 7 4 125
1864 SI MM 12:00:00 NR -10.65 74.66 1971 1967 __________P___ -1 -10.65 74.66 7 4 127
1864 SI MM 15:00:00 NR -10.78 74.84 1978 1974 __________P___ -1 -10.78 74.84 7 4 127
1864 SI MM 18:00:00 NR -10.90 75.00 1982 1978 __________O___ -1 -10.90 75.00 7 3 127
1864 SI MM 21:00:00 NR -10.99 75.12 1989 1985 __________P___ -1 -10.99 75.12 7 3 125
1864 SI MM 1864-04-15 00:00:00 NR -11.06 75.23 1996 1993 __________P___ -1 -11.06 75.23 7 3 122
1864 SI MM 03:00:00 NR -11.13 75.35 1993 1989 __________P___ -1 -11.13 75.35 7 3 118
1864 SI MM 06:00:00 NR -11.20 75.50 1997 1994 __________O___ -1 -11.20 75.50 7 4 114
1864 SI MM 09:00:00 NR -11.28 75.71 2002 1996 __________P___ -1 -11.28 75.71 7 5 111
1864 SI MM 12:00:00 NR -11.38 75.96 2004 2001 __________P___ -1 -11.38 75.96 7 5 111
1864 SI MM 15:00:00 NR -11.48 76.23 2009 2004 __________P___ -1 -11.48 76.23 7 6 113
1864 SI MM 18:00:00 NR -11.60 76.50 2012 2010 __________O___ -1 -11.60 76.50 7 6 117
1864 SI MM 21:00:00 NR -11.74 76.75 2018 2018 __________P___ -1 -11.74 76.75 7 6 122
1864 SI MM 1864-04-16 00:00:00 NR -11.90 77.00 2033 2031 __________P___ -1 -11.90 77.00 7 6 123
1864 SI MM 03:00:00 NR -12.06 77.25 2051 2047 __________P___ -1 -12.06 77.25 7 6 121
1864 SI MM 06:00:00 NR -12.20 77.50 2056 2054 __________O___ -1 -12.20 77.50 7 6 117
1864 SI MM 09:00:00 NR -12.31 77.76 2062 2062 __________P___ -1 -12.31 77.76 7 5 113
1864 SI MM 12:00:00 NR -12.41 78.02 2070 2068 __________P___ -1 -12.41 78.02 7 5 111
1864 SI MM 15:00:00 NR -12.51 78.26 2077 2075 __________P___ -1 -12.51 78.26 7 5 111
1864 SI MM 18:00:00 NR -12.60 78.50 2085 2084 __________O___ -1 -12.60 78.50 7 5 113
1864 SI MM 21:00:00 NR -12.70 78.72 2094 2093 __________P___ -1 -12.70 78.72 7 5 116
1864 SI MM 1864-04-17 00:00:00 NR -12.80 78.92 2103 2102 __________P___ -1 -12.80 78.92 7 4 118
1864 SI MM 03:00:00 NR -12.90 79.11 2112 2112 __________P___ -1 -12.90 79.11 7 4 119
1864 SI MM 06:00:00 NR -13.00 79.30 2122 __________O___ -1 -13.00 79.30 7 4 119